Time;durP1;ratioP1;P1;durP2;ratioP2;P2;SDS_P1;SDS_P2;PMS_P1;PMS_P2;Temp;Humidity;BMP_temperature;BMP_pressure;BME280_temperature;BME280_humidity;BME280_pressure;Samples;Min_cycle;Max_cycle;Signal;HPM_P1;HPM_P2
2022/01/17 00:00:01;;;;;;;;;42.50;34.50;;;;;7.03;92.51;102559.94;5059274;28;45540;-63
2022/01/17 00:02:28;;;;;;;;;46.00;34.75;;;;;7.03;92.74;102559.06;5056421;28;45480;-65
2022/01/17 00:04:54;;;;;;;;;45.50;33.75;;;;;7.06;91.84;102556.47;5059083;28;45339;-63
2022/01/17 00:07:19;;;;;;;;;47.25;37.50;;;;;7.08;92.39;102571.31;5059338;28;45400;-63
2022/01/17 00:09:44;;;;;;;;;44.00;33.50;;;;;7.06;91.85;102575.66;5059719;28;45567;-63
2022/01/17 00:12:10;;;;;;;;;41.25;34.00;;;;;7.05;92.32;102568.66;5058715;28;45287;-64
2022/01/17 00:14:40;;;;;;;;;39.75;34.00;;;;;7.04;92.29;102572.16;5058513;28;45324;-64
2022/01/17 00:17:28;;;;;;;;;46.50;38.25;;;;;7.03;92.01;102575.63;5058898;28;45447;-64
2022/01/17 00:19:55;;;;;;;;;46.75;37.00;;;;;6.99;92.84;102572.13;5058660;28;45368;-63
2022/01/17 00:22:21;;;;;;;;;48.75;36.25;;;;;6.98;92.48;102565.16;5057919;28;46462;-65
2022/01/17 00:24:47;;;;;;;;;47.75;40.00;;;;;6.99;92.93;102566.91;5061226;28;45236;-66
2022/01/17 00:27:14;;;;;;;;;44.75;35.25;;;;;6.98;93.64;102565.16;5060177;28;45359;-62
2022/01/17 00:29:40;;;;;;;;;43.50;33.25;;;;;6.98;92.71;102564.25;5060203;28;45456;-64
2022/01/17 00:32:06;;;;;;;;;39.75;33.00;;;;;6.98;92.62;102559.91;5059077;28;46566;-66
2022/01/17 00:34:32;;;;;;;;;41.75;33.75;;;;;6.96;93.26;102559.03;5058916;28;45372;-64
2022/01/17 00:36:57;;;;;;;;;41.50;34.25;;;;;6.95;92.54;102554.66;5059216;28;45370;-64
2022/01/17 00:39:23;;;;;;;;;43.50;36.25;;;;;6.98;92.88;102566.88;5058593;28;45509;-63
2022/01/17 00:41:48;;;;;;;;;38.75;33.25;;;;;7.00;92.59;102563.44;5058615;28;45419;-64
2022/01/17 00:44:21;;;;;;;;;46.75;35.25;;;;;7.00;93.26;102568.66;5058815;28;45347;-63
2022/01/17 00:46:47;;;;;;;;;47.25;34.00;;;;;7.03;92.80;102566.91;5058716;28;45397;-64
2022/01/17 00:49:12;;;;;;;;;40.25;31.75;;;;;7.00;93.43;102557.28;5058821;28;45597;-63
2022/01/17 00:51:37;;;;;;;;;45.50;34.00;;;;;7.06;92.74;102559.94;5058851;28;45458;-63
2022/01/17 00:54:03;;;;;;;;;47.25;37.00;;;;;7.09;93.13;102559.13;5058480;28;45447;-63
2022/01/17 00:56:28;;;;;;;;;44.75;37.00;;;;;7.07;92.74;102550.38;5059785;28;45395;-63
2022/01/17 00:58:53;;;;;;;;;44.25;36.25;;;;;7.13;92.61;102564.34;5041071;28;45544;-62
2022/01/17 01:01:19;;;;;;;;;40.75;34.50;;;;;7.13;92.89;102558.25;5058791;28;45198;-63
2022/01/17 01:03:45;;;;;;;;;37.75;33.25;;;;;7.13;92.71;102555.66;5058560;28;45337;-63
2022/01/17 01:06:10;;;;;;;;;38.00;32.50;;;;;7.12;92.93;102553.91;5058475;28;45372;-63
2022/01/17 01:08:36;;;;;;;;;45.00;35.75;;;;;7.13;93.16;102564.34;5040497;28;45336;-62
2022/01/17 01:11:01;;;;;;;;;39.25;33.00;;;;;7.09;92.60;102548.66;5059388;28;45612;-61
2022/01/17 01:13:29;;;;;;;;;45.50;35.50;;;;;7.16;92.74;102559.13;5058420;28;45217;-64
2022/01/17 01:16:10;;;;;;;;;41.75;34.00;;;;;7.17;93.09;102554.78;5059930;28;45324;-61
2022/01/17 01:18:55;;;;;;;;;44.50;35.50;;;;;7.16;92.83;102556.53;5057697;28;45394;-62
2022/01/17 01:29:20;;;;;;;;;39.75;33.50;;;;;7.26;93.09;102553.94;5057484;28;45388;-62
2022/01/17 01:34:13;;;;;;;;;40.00;35.00;;;;;7.31;92.70;102552.25;5056977;28;45327;-62
2022/01/17 01:36:39;;;;;;;;;37.50;31.75;;;;;7.32;93.02;102556.59;5057047;28;45336;-63
2022/01/17 01:39:06;;;;;;;;;45.00;34.50;;;;;7.33;92.93;102555.75;5057548;28;45611;-59
2022/01/17 01:41:42;;;;;;;;;36.75;32.50;;;;;7.36;92.83;102557.50;5057464;28;46246;-63
2022/01/17 01:44:12;;;;;;;;;40.75;34.25;;;;;7.36;92.69;102561.00;5056958;28;45549;-63
2022/01/17 01:46:38;;;;;;;;;42.75;34.00;;;;;7.37;92.49;102557.50;5057206;28;45460;-63
2022/01/17 01:49:03;;;;;;;;;36.75;32.50;;;;;7.37;92.61;102557.50;5057150;28;45584;-65
2022/01/17 01:51:28;;;;;;;;;46.00;37.25;;;;;7.37;92.46;102561.88;5057389;28;46128;-64
2022/01/17 01:53:54;;;;;;;;;41.50;34.50;;;;;7.38;92.98;102569.72;5057094;28;45515;-63
2022/01/17 01:56:19;;;;;;;;;43.75;35.75;;;;;7.38;92.17;102563.63;5038301;28;45316;-62
2022/01/17 01:58:44;;;;;;;;;47.50;37.00;;;;;7.39;93.35;102570.63;5057298;28;45459;-63
2022/01/17 02:01:10;;;;;;;;;43.50;34.75;;;;;7.39;92.74;102575.84;5060315;28;46098;-64
2022/01/17 02:03:36;;;;;;;;;48.25;38.25;;;;;7.37;92.91;102569.72;5056759;28;45414;-61
2022/01/17 02:06:01;;;;;;;;;43.75;34.25;;;;;7.41;91.93;102579.34;5056729;28;45351;-64
2022/01/17 02:08:27;;;;;;;;;49.25;39.00;;;;;7.43;92.69;102582.84;5038708;28;45433;-64
2022/01/17 02:10:53;;;;;;;;;44.00;36.25;;;;;7.43;92.77;102580.25;5056434;28;47222;-63
2022/01/17 02:13:18;;;;;;;;;45.00;36.75;;;;;7.45;91.38;102586.34;5056509;28;45452;-63
2022/01/17 02:15:46;;;;;;;;;48.75;37.25;;;;;7.40;91.47;102572.38;5055150;28;45263;-63
2022/01/17 02:18:18;;;;;;;;;49.25;37.50;;;;;7.40;91.95;102583.69;5056717;28;45459;-66
2022/01/17 02:20:58;;;;;;;;;47.75;38.50;;;;;7.35;92.04;102577.56;5056428;28;45382;-63
2022/01/17 02:23:23;;;;;;;;;51.50;40.75;;;;;7.37;91.92;102578.44;5056348;28;45361;-62
2022/01/17 02:25:49;;;;;;;;;47.00;36.00;;;;;7.35;91.37;102567.09;5055652;28;45260;-64
2022/01/17 02:28:15;;;;;;;;;40.50;33.00;;;;;7.37;91.87;102570.59;5057060;28;45261;-63
2022/01/17 02:30:40;;;;;;;;;46.25;38.75;;;;;7.39;91.53;102568.84;5057090;28;46258;-64
2022/01/17 02:33:06;;;;;;;;;53.75;39.75;;;;;7.39;91.77;102570.63;5057158;28;45262;-64
2022/01/17 02:35:31;;;;;;;;;51.50;39.50;;;;;7.39;91.56;102561.00;5056670;28;45325;-65
2022/01/17 02:37:58;;;;;;;;;48.75;40.00;;;;;7.39;91.83;102561.00;5057291;28;45439;-64
2022/01/17 02:40:24;;;;;;;;;47.00;39.75;;;;;7.39;91.46;102558.38;5056310;28;46154;-63
2022/01/17 02:43:02;;;;;;;;;51.75;39.00;;;;;7.41;90.83;102568.88;5056882;28;45395;-64
2022/01/17 02:46:24;;;;;;;;;50.00;39.75;;;;;7.38;90.69;102556.63;5060032;28;45460;-63
2022/01/17 02:48:24;;;;;;;;;52.50;40.50;;;;;7.39;90.67;102555.78;5059466;28;45379;-62
2022/01/17 02:50:50;;;;;;;;;50.00;39.25;;;;;7.39;90.76;102555.78;5057470;28;46238;-65
2022/01/17 02:53:16;;;;;;;;;51.50;39.75;;;;;7.40;90.68;102554.91;5056882;28;45225;-64
2022/01/17 02:56:06;;;;;;;;;49.75;40.00;;;;;7.41;90.68;102554.03;5057222;28;45401;-64
2022/01/17 02:58:34;;;;;;;;;51.75;39.50;;;;;7.40;90.89;102554.03;5046604;28;45568;-64
2022/01/17 03:01:02;;;;;;;;;48.25;37.75;;;;;7.39;91.63;102552.28;5056987;28;45491;-64
2022/01/17 03:03:30;;;;;;;;;50.00;40.25;;;;;7.38;90.64;102561.88;5058596;28;45450;-63
2022/01/17 03:05:57;;;;;;;;;47.00;38.00;;;;;7.38;91.28;102564.50;5056073;28;45408;-64
2022/01/17 03:08:25;;;;;;;;;52.75;41.00;;;;;7.38;91.58;102564.50;5056700;28;45349;-63
2022/01/17 03:10:52;;;;;;;;;45.25;34.50;;;;;7.37;91.66;102570.59;5055750;28;46296;-63
2022/01/17 03:13:29;;;;;;;;;44.50;37.00;;;;;7.37;91.39;102580.22;5054680;28;45213;-63
2022/01/17 03:15:58;;;;;;;;;42.00;35.50;;;;;7.33;91.84;102581.91;5055773;28;45411;-64
2022/01/17 03:18:29;;;;;;;;;51.25;38.00;;;;;7.32;90.90;102585.41;5055724;28;45260;-63
2022/01/17 03:20:55;;;;;;;;;46.75;37.75;;;;;7.25;92.03;102583.63;5055653;28;45386;-65
2022/01/17 03:23:20;;;;;;;;;45.25;37.25;;;;;7.27;91.60;102587.13;5055496;28;46039;-64
2022/01/17 03:25:46;;;;;;;;;48.25;38.75;;;;;7.27;92.09;102581.88;5055648;28;45395;-63
2022/01/17 03:28:11;;;;;;;;;51.00;35.00;;;;;7.27;91.90;102592.34;5055781;28;45581;-64
2022/01/17 03:30:37;;;;;;;;;48.75;34.75;;;;;7.23;91.97;102581.00;5037915;28;47307;-64
2022/01/17 03:33:05;;;;;;;;;43.50;34.00;;;;;7.26;92.21;102596.72;5055956;28;45458;-63
2022/01/17 03:35:31;;;;;;;;;42.25;35.50;;;;;7.26;92.36;102593.22;5061237;28;45218;-62
2022/01/17 03:37:57;;;;;;;;;42.25;36.25;;;;;7.28;91.81;102596.72;5055991;28;45455;-62
2022/01/17 03:40:23;;;;;;;;;50.75;36.75;;;;;7.31;92.08;102597.63;5055676;28;45194;-63
2022/01/17 03:42:48;;;;;;;;;47.50;35.00;;;;;7.30;91.52;102597.59;5055652;28;45373;-63
2022/01/17 03:45:14;;;;;;;;;40.00;33.50;;;;;7.22;91.30;102583.59;5037789;28;45304;-63
2022/01/17 03:47:43;;;;;;;;;43.50;33.50;;;;;7.11;92.09;102573.94;5056100;28;45483;-63
2022/01/17 03:50:12;;;;;;;;;42.25;33.25;;;;;7.28;91.97;102604.56;5055626;28;46281;-63
2022/01/17 03:52:40;;;;;;;;;38.50;33.25;;;;;7.25;91.34;102607.19;5055170;28;45229;-64
2022/01/17 03:55:07;;;;;;;;;37.25;31.50;;;;;7.25;91.82;102609.78;5055281;28;45489;-63
2022/01/17 03:57:32;;;;;;;;;42.00;34.25;;;;;7.23;91.32;102614.16;5058719;28;45273;-63
2022/01/17 03:59:57;;;;;;;;;37.25;32.75;;;;;7.16;91.60;102608.88;5058355;28;45327;-62
2022/01/17 04:02:23;;;;;;;;;38.50;32.25;;;;;7.22;91.49;102626.38;5059478;28;45445;-63
2022/01/17 04:04:48;;;;;;;;;37.75;31.00;;;;;7.20;90.94;102622.88;5059176;28;45419;-63
2022/01/17 04:07:13;;;;;;;;;42.25;35.50;;;;;7.19;91.66;102621.13;5059251;28;45591;-63
2022/01/17 04:09:39;;;;;;;;;37.75;31.50;;;;;7.20;91.03;102622.88;5059068;28;45387;-63
2022/01/17 04:12:04;;;;;;;;;43.00;34.50;;;;;7.17;91.32;102625.47;5058858;28;45470;-64
2022/01/17 04:14:34;;;;;;;;;48.00;37.25;;;;;7.14;91.20;102621.06;5058684;28;45407;-62
2022/01/17 04:17:00;;;;;;;;;41.00;35.25;;;;;7.14;90.92;102628.91;5059167;28;45313;-64
2022/01/17 04:19:25;;;;;;;;;42.25;33.75;;;;;7.11;90.63;102633.28;5058373;28;45384;-63
2022/01/17 04:21:51;;;;;;;;;50.25;36.00;;;;;7.10;90.45;102642.84;5045801;28;45332;-62
2022/01/17 04:24:16;;;;;;;;;42.50;36.75;;;;;7.12;90.85;102641.13;5058939;28;45390;-63
2022/01/17 04:26:42;;;;;;;;;41.25;36.00;;;;;7.12;90.79;102643.75;5059275;28;45252;-64
2022/01/17 04:29:08;;;;;;;;;49.50;35.00;;;;;7.09;91.21;102635.88;5058933;28;47400;-63
2022/01/17 04:31:33;;;;;;;;;47.25;37.00;;;;;7.11;90.91;102636.75;5058608;28;45414;-64
2022/01/17 04:33:59;;;;;;;;;49.75;37.50;;;;;7.10;90.65;102629.75;5058492;28;45377;-62
2022/01/17 04:36:25;;;;;;;;;49.25;38.25;;;;;7.11;90.20;102628.03;5058607;28;45442;-64
2022/01/17 04:38:50;;;;;;;;;34.75;30.75;;;;;7.10;89.65;102624.53;5058546;28;45308;-64
2022/01/17 04:41:18;;;;;;;;;41.75;34.00;;;;;7.09;90.52;102622.78;5058524;28;45232;-62
2022/01/17 04:43:57;;;;;;;;;42.25;34.25;;;;;7.12;90.46;102622.81;5059235;28;45248;-64
2022/01/17 04:46:23;;;;;;;;;42.25;33.50;;;;;7.13;89.98;102627.16;5059009;28;45518;-64
2022/01/17 04:48:48;;;;;;;;;46.25;34.25;;;;;7.14;89.14;102638.53;5058659;28;45359;-63
2022/01/17 04:51:13;;;;;;;;;37.25;31.25;;;;;7.13;88.72;102624.56;5059736;28;45304;-64
2022/01/17 04:53:40;;;;;;;;;41.00;33.75;;;;;7.10;89.64;102631.53;5062049;28;45938;-62
2022/01/17 04:56:06;;;;;;;;;36.75;33.50;;;;;7.15;89.45;102645.53;5059056;28;45546;-64
2022/01/17 04:58:31;;;;;;;;;42.25;33.25;;;;;7.18;89.73;102636.78;5058682;28;47071;-63
2022/01/17 05:00:57;;;;;;;;;41.25;31.25;;;;;7.18;89.17;102640.31;5057656;28;45190;-64
2022/01/17 05:03:24;;;;;;;;;44.50;34.25;;;;;7.20;89.07;102633.34;5057874;28;45324;-63
2022/01/17 05:05:50;;;;;;;;;40.00;33.25;;;;;7.20;88.88;102640.31;5059313;28;45509;-63
2022/01/17 05:08:16;;;;;;;;;34.25;30.25;;;;;7.12;88.29;102625.41;5060641;28;45508;-63
2022/01/17 05:10:49;;;;;;;;;27.50;27.50;;;;;7.07;88.52;102634.13;5058891;28;45522;-63
2022/01/17 05:13:19;;;;;;;;;36.50;28.25;;;;;6.98;88.23;102635.81;5059679;28;45300;-62
2022/01/17 05:15:53;;;;;;;;;34.75;31.25;;;;;6.91;88.31;102646.19;5058834;28;45273;-62
2022/01/17 05:20:57;;;;;;;;;40.00;33.25;;;;;6.73;89.55;102650.41;5058263;28;45318;-62
2022/01/17 05:23:22;;;;;;;;;27.50;27.50;;;;;6.64;88.88;102645.94;5060338;28;45801;-64
2022/01/17 05:25:47;;;;;;;;;35.25;32.00;;;;;6.55;89.46;102643.25;5061870;28;45545;-65
2022/01/17 05:28:13;;;;;;;;;35.00;32.00;;;;;6.53;89.24;102661.56;5063762;28;45247;-63
2022/01/17 05:30:38;;;;;;;;;37.25;32.00;;;;;6.45;89.10;102646.63;5057009;28;45258;-64
2022/01/17 05:33:04;;;;;;;;;38.25;30.25;;;;;6.38;90.39;102657.03;5056855;28;45386;-63
2022/01/17 05:35:29;;;;;;;;;36.75;34.00;;;;;6.27;90.20;102649.06;5057318;28;45254;-63
2022/01/17 05:37:54;;;;;;;;;34.75;32.00;;;;;6.26;89.97;102657.75;5056882;28;46144;-63
2022/01/17 05:40:20;;;;;;;;;32.25;30.50;;;;;6.22;90.89;102653.34;5057061;28;45391;-63
2022/01/17 05:42:45;;;;;;;;;36.00;31.75;;;;;6.18;90.24;102659.41;5039571;28;45564;-64
2022/01/17 05:45:12;;;;;;;;;41.00;31.25;;;;;6.13;90.42;102663.69;5057481;28;45328;-62
2022/01/17 05:47:38;;;;;;;;;34.75;28.25;;;;;6.10;91.49;102666.28;5056319;28;46348;-64
2022/01/17 05:50:06;;;;;;;;;38.75;32.00;;;;;6.05;90.62;102667.97;5056804;28;45473;-62
2022/01/17 05:52:32;;;;;;;;;33.75;32.25;;;;;6.01;91.01;102677.50;5057072;28;45369;-64
2022/01/17 05:54:59;;;;;;;;;35.75;32.00;;;;;5.98;91.46;102677.44;5040989;28;45375;-63
2022/01/17 05:57:25;;;;;;;;;37.25;32.00;;;;;5.95;92.27;102680.00;5057064;28;45368;-62
2022/01/17 05:59:50;;;;;;;;;43.00;31.50;;;;;5.93;92.21;102677.38;5056912;28;45650;-61
2022/01/17 06:02:16;;;;;;;;;42.25;35.50;;;;;5.91;92.01;102673.84;5056808;28;45336;-63
2022/01/17 06:04:41;;;;;;;;;35.75;31.75;;;;;5.98;90.95;102675.69;5057930;28;45322;-63
2022/01/17 06:07:07;;;;;;;;;33.75;31.00;;;;;6.05;91.10;102665.34;5057077;28;48465;-64
2022/01/17 06:09:33;;;;;;;;;38.25;32.25;;;;;6.10;91.52;102669.78;5056999;28;45337;-64
2022/01/17 06:11:59;;;;;;;;;43.00;30.25;;;;;6.16;91.64;102670.72;5056715;28;45333;-62
2022/01/17 06:14:25;;;;;;;;;35.25;32.25;;;;;6.16;91.56;102671.56;5057387;28;45312;-62
2022/01/17 06:16:51;;;;;;;;;37.25;31.50;;;;;6.17;91.70;102670.72;5039038;28;46951;-63
2022/01/17 06:19:17;;;;;;;;;37.50;33.50;;;;;6.18;90.75;102672.47;5056110;28;45328;-63
2022/01/17 06:21:42;;;;;;;;;35.50;31.75;;;;;6.19;91.61;102675.97;5057165;28;45278;-63
2022/01/17 06:24:09;;;;;;;;;41.75;31.75;;;;;6.18;90.80;102671.59;5058071;28;45623;-63
2022/01/17 06:26:36;;;;;;;;;37.50;30.50;;;;;6.14;90.89;102671.56;5039071;28;48388;-64
2022/01/17 06:29:02;;;;;;;;;37.25;32.25;;;;;6.12;91.30;102675.00;5057472;28;45434;-63
2022/01/17 06:31:28;;;;;;;;;36.25;31.50;;;;;6.09;91.52;102686.31;5063139;28;44876;-65
2022/01/17 06:33:53;;;;;;;;;31.25;26.75;;;;;6.07;90.77;102695.88;5042942;28;45397;-66
2022/01/17 06:36:19;;;;;;;;;41.75;32.00;;;;;6.05;90.83;102694.09;5058723;28;46147;-66
2022/01/17 06:38:44;;;;;;;;;31.00;29.50;;;;;6.09;90.77;102698.50;5057748;28;45421;-62
2022/01/17 06:41:09;;;;;;;;;40.00;33.75;;;;;6.12;92.05;102707.25;5057648;28;45346;-62
2022/01/17 06:43:35;;;;;;;;;40.75;35.25;;;;;6.15;91.92;102711.63;5058142;28;45371;-64
2022/01/17 06:46:00;;;;;;;;;44.75;35.25;;;;;6.19;91.61;102726.50;5055447;28;45298;-62
2022/01/17 06:48:26;;;;;;;;;40.50;34.00;;;;;6.20;92.46;102736.09;5054827;28;45450;-61
2022/01/17 06:50:51;;;;;;;;;42.75;37.00;;;;;6.25;91.96;102744.84;5054601;28;45546;-64
2022/01/17 06:53:16;;;;;;;;;49.25;35.75;;;;;6.23;92.94;102743.97;5055795;28;45342;-62
2022/01/17 06:55:42;;;;;;;;;39.25;35.25;;;;;6.26;91.85;102736.16;5056460;28;46304;-62
2022/01/17 06:58:07;;;;;;;;;42.75;34.25;;;;;6.25;92.70;102721.34;5055016;28;45387;-65
2022/01/17 07:00:34;;;;;;;;;49.25;34.50;;;;;6.29;91.52;102719.66;5054270;28;45866;-65
2022/01/17 07:02:59;;;;;;;;;47.75;37.00;;;;;6.25;92.38;102713.50;5037358;28;45544;-64
2022/01/17 07:05:24;;;;;;;;;35.25;32.00;;;;;6.27;92.16;102721.38;5055913;28;46003;-63
2022/01/17 07:07:50;;;;;;;;;42.25;35.75;;;;;6.25;92.17;102739.63;5055384;28;45336;-66
2022/01/17 07:10:15;;;;;;;;;42.25;33.25;;;;;6.23;91.63;102733.50;5036045;28;45353;-63
2022/01/17 07:12:41;;;;;;;;;43.75;34.25;;;;;6.21;92.21;102737.84;5038883;28;45595;-68
2022/01/17 07:15:08;;;;;;;;;46.75;36.00;;;;;6.15;92.41;102743.00;5055748;28;45432;-62
2022/01/17 07:17:34;;;;;;;;;47.50;38.50;;;;;6.19;92.42;102768.31;5055309;28;45526;-66
2022/01/17 07:20:00;;;;;;;;;43.75;35.00;;;;;6.20;92.96;102779.66;5055935;28;45430;-62
2022/01/17 07:22:27;;;;;;;;;43.50;34.50;;;;;6.20;92.69;102808.41;5055820;28;45454;-63
2022/01/17 07:24:54;;;;;;;;;36.25;34.00;;;;;6.18;92.98;102800.53;5056567;28;47088;-64
2022/01/17 07:27:19;;;;;;;;;29.00;23.75;;;;;6.18;91.88;102810.13;5035009;28;45741;-62
2022/01/17 07:29:44;;;;;;;;;37.25;34.25;;;;;6.16;91.58;102790.91;5038847;28;45218;-64
2022/01/17 07:32:10;;;;;;;;;35.75;31.75;;;;;6.11;92.35;102772.56;5059757;28;45218;-63
2022/01/17 07:34:35;;;;;;;;;40.50;35.00;;;;;6.09;92.44;102779.50;5060772;28;45306;-64
2022/01/17 07:37:01;;;;;;;;;43.25;35.00;;;;;6.05;92.85;102772.47;5060319;28;45408;-64
2022/01/17 07:39:27;;;;;;;;;43.75;34.50;;;;;6.06;92.59;102776.84;5060841;28;45446;-62
2022/01/17 07:41:53;;;;;;;;;49.00;36.00;;;;;6.04;92.61;102775.94;5058900;28;45338;-61
2022/01/17 07:44:19;;;;;;;;;43.00;35.75;;;;;6.01;93.28;102770.66;5058433;28;46428;-62
2022/01/17 07:46:53;;;;;;;;;49.50;39.25;;;;;6.03;93.77;102768.97;5058383;28;45617;-66
2022/01/17 07:49:21;;;;;;;;;42.75;35.25;;;;;6.05;93.22;102772.47;5058289;28;45423;-64
2022/01/17 07:51:50;;;;;;;;;48.00;36.50;;;;;5.97;93.67;102761.91;5057370;28;45713;-63
2022/01/17 07:54:18;;;;;;;;;44.50;34.25;;;;;6.03;93.58;102782.03;5056998;28;45561;-64
2022/01/17 07:56:44;;;;;;;;;41.25;35.00;;;;;6.04;93.65;102791.63;5056570;28;45407;-62
2022/01/17 07:59:10;;;;;;;;;52.75;39.00;;;;;6.02;93.72;102786.38;5059090;28;45507;-62
2022/01/17 08:01:37;;;;;;;;;49.75;37.00;;;;;6.05;93.92;102793.38;5058833;28;45313;-61
2022/01/17 08:04:06;;;;;;;;;45.00;37.50;;;;;6.11;93.86;102796.06;5058550;28;46063;-61
2022/01/17 08:06:38;;;;;;;;;52.50;39.75;;;;;6.16;94.14;102797.00;5058266;28;45446;-61
2022/01/17 08:09:09;;;;;;;;;58.75;44.75;;;;;6.16;93.88;102786.56;5058782;28;45359;-65
2022/01/17 08:11:34;;;;;;;;;48.25;37.25;;;;;6.21;93.15;102803.19;5058786;28;45513;-65
2022/01/17 08:14:00;;;;;;;;;46.25;35.50;;;;;6.18;92.23;102800.53;5058118;28;45525;-64
2022/01/17 08:16:25;;;;;;;;;39.75;35.00;;;;;6.16;92.76;102802.25;5059806;28;45391;-63
2022/01/17 08:18:52;;;;;;;;;47.75;36.75;;;;;6.08;92.26;102801.25;5058403;28;45303;-64
2022/01/17 08:21:18;;;;;;;;;49.75;40.00;;;;;6.09;92.97;102797.78;5057882;28;45324;-62
2022/01/17 08:23:43;;;;;;;;;47.75;38.25;;;;;6.06;92.87;102811.69;5057522;28;46079;-65
2022/01/17 08:26:09;;;;;;;;;48.00;36.75;;;;;6.06;92.86;102822.16;5039507;28;45378;-64
2022/01/17 08:28:34;;;;;;;;;52.75;41.75;;;;;6.05;92.82;102816.88;5059320;28;45521;-62
2022/01/17 08:30:59;;;;;;;;;48.00;38.25;;;;;6.08;93.43;102811.69;5060427;28;45283;-64
2022/01/17 08:33:25;;;;;;;;;51.00;39.25;;;;;6.07;92.56;102805.63;5061033;28;45405;-62
2022/01/17 08:35:50;;;;;;;;;51.00;40.50;;;;;6.07;93.29;102808.22;5063030;28;45577;-66
2022/01/17 08:38:16;;;;;;;;;51.25;38.00;;;;;6.10;92.78;102820.44;5058602;28;45343;-65
2022/01/17 08:40:41;;;;;;;;;52.00;40.75;;;;;6.10;92.90;102823.94;5057513;28;45388;-65
2022/01/17 08:43:07;;;;;;;;;51.50;39.00;;;;;6.12;92.61;102817.00;5056565;28;46096;-64
2022/01/17 08:45:33;;;;;;;;;53.00;43.00;;;;;6.14;93.72;102825.75;5057181;28;45312;-64
2022/01/17 08:47:59;;;;;;;;;49.00;38.25;;;;;6.18;92.88;102818.81;5057166;28;45315;-63
2022/01/17 08:50:24;;;;;;;;;49.25;40.75;;;;;6.22;92.04;102822.38;5058663;28;45559;-64
2022/01/17 08:52:50;;;;;;;;;49.00;35.75;;;;;6.25;92.55;102831.13;5058075;28;46611;-63
2022/01/17 08:55:17;;;;;;;;;41.50;35.25;;;;;6.29;91.92;102834.66;5057329;28;45340;-62
2022/01/17 08:57:42;;;;;;;;;48.00;36.00;;;;;6.31;92.02;102827.72;5039136;28;45519;-63
2022/01/17 09:00:14;;;;;;;;;48.50;38.00;;;;;6.36;92.28;102817.31;5057605;28;45205;-63
2022/01/17 09:02:39;;;;;;;;;46.00;36.00;;;;;6.53;91.77;102835.84;5040181;28;46305;-64
2022/01/17 09:05:06;;;;;;;;;48.00;37.75;;;;;6.59;91.25;102822.84;5059842;28;45300;-65
2022/01/17 09:07:31;;;;;;;;;45.75;37.75;;;;;6.68;90.75;102828.19;5058085;28;45782;-67
2022/01/17 09:09:57;;;;;;;;;50.50;35.00;;;;;6.72;90.72;102821.28;5057911;28;45609;-63
2022/01/17 09:12:22;;;;;;;;;48.50;38.00;;;;;6.82;90.23;102836.22;5057805;28;45360;-64
2022/01/17 09:14:48;;;;;;;;;49.25;39.25;;;;;6.87;89.72;102837.16;5057986;28;45279;-66
2022/01/17 09:17:14;;;;;;;;;46.50;35.25;;;;;6.97;89.39;102842.50;5058306;28;45300;-65
2022/01/17 09:19:41;;;;;;;;;52.00;38.25;;;;;6.99;90.13;102836.44;5040600;28;45249;-64
2022/01/17 09:22:08;;;;;;;;;42.75;35.50;;;;;7.18;89.99;102854.94;5056743;28;46223;-65
2022/01/17 09:24:35;;;;;;;;;51.00;36.75;;;;;7.31;89.36;102861.16;5057595;28;45352;-66
2022/01/17 09:27:01;;;;;;;;;50.00;37.25;;;;;7.45;88.88;102870.06;5057600;28;45368;-64
2022/01/17 09:29:26;;;;;;;;;50.25;39.25;;;;;7.55;88.03;102880.63;5058244;28;45522;-64
2022/01/17 09:31:52;;;;;;;;;48.50;37.25;;;;;7.65;88.18;102882.47;5056645;28;45365;-64
2022/01/17 09:34:18;;;;;;;;;47.00;37.25;;;;;7.68;87.65;102887.72;5056688;28;45326;-62
2022/01/17 09:36:43;;;;;;;;;50.50;41.50;;;;;7.75;88.00;102894.78;5056772;28;45930;-64
2022/01/17 09:39:09;;;;;;;;;45.75;37.00;;;;;7.73;86.99;102896.50;5055622;28;45464;-67
2022/01/17 09:41:35;;;;;;;;;46.50;37.25;;;;;7.76;86.88;102895.63;5056695;28;45944;-65
2022/01/17 09:44:01;;;;;;;;;48.00;38.50;;;;;7.82;86.19;102890.44;5056573;28;45302;-66
2022/01/17 09:46:33;;;;;;;;;46.75;37.00;;;;;7.83;86.37;102886.97;5056997;28;45326;-64
2022/01/17 09:49:13;;;;;;;;;46.25;37.25;;;;;7.81;86.07;102872.97;5057683;28;45276;-66
2022/01/17 09:54:29;;;;;;;;;47.75;38.50;;;;;7.87;85.77;102866.91;5055578;28;45412;-64
2022/01/17 09:56:55;;;;;;;;;46.00;37.25;;;;;8.04;85.87;102890.66;5056967;28;45329;-62
2022/01/17 09:59:21;;;;;;;;;48.75;37.00;;;;;8.10;85.17;102895.03;5056686;28;45481;-62
2022/01/17 10:01:47;;;;;;;;;50.25;38.25;;;;;8.09;85.06;102896.81;5054459;28;46200;-65
2022/01/17 10:04:13;;;;;;;;;39.50;34.00;;;;;8.10;83.96;102909.03;5056171;28;45341;-63
2022/01/17 10:06:40;;;;;;;;;49.00;36.50;;;;;8.08;83.89;102916.03;5056348;28;45400;-64
2022/01/17 10:09:17;;;;;;;;;39.75;33.25;;;;;8.12;84.15;102924.78;5056602;28;45562;-63
2022/01/17 10:12:05;;;;;;;;;46.00;37.00;;;;;8.16;84.00;102927.44;5056333;28;46363;-62
2022/01/17 10:14:36;;;;;;;;;45.50;36.00;;;;;8.24;84.95;102930.09;5056351;28;45296;-60
2022/01/17 10:17:07;;;;;;;;;47.50;37.00;;;;;8.34;83.64;102925.81;5056808;28;45330;-61
2022/01/17 10:19:32;;;;;;;;;42.25;34.00;;;;;8.39;83.09;102928.47;5058052;28;45490;-63
2022/01/17 10:22:00;;;;;;;;;46.75;36.00;;;;;8.43;83.24;102932.84;5056473;28;46802;-61
2022/01/17 10:35:30;;;;;;;;;47.25;39.25;;;;;8.73;82.23;102928.72;5055908;28;45314;-63
2022/01/17 10:38:02;;;;;;;;;47.00;39.00;;;;;8.79;81.67;102930.47;5058098;28;45352;-62
2022/01/17 10:40:43;;;;;;;;;46.50;37.25;;;;;8.74;80.86;102931.34;5056671;28;45611;-61
2022/01/17 10:43:33;;;;;;;;;45.00;36.75;;;;;8.73;81.78;102945.31;5056044;28;46542;-67
2022/01/17 10:45:58;;;;;;;;;50.25;38.25;;;;;8.74;81.73;102951.47;5056933;28;45399;-62
2022/01/17 10:48:35;;;;;;;;;52.75;42.00;;;;;8.75;81.66;102938.34;5054471;28;45251;-64
2022/01/17 10:51:02;;;;;;;;;45.00;34.50;;;;;8.79;81.32;102936.63;5055899;28;45541;-63
2022/01/17 10:53:28;;;;;;;;;47.00;39.50;;;;;8.79;81.38;102938.34;5055673;28;46330;-64
2022/01/17 10:55:55;;;;;;;;;51.75;39.00;;;;;8.80;81.56;102922.63;5055427;28;45772;-61
2022/01/17 10:58:28;;;;;;;;;49.25;39.00;;;;;8.79;81.64;102894.63;5056200;28;45380;-64
2022/01/17 11:00:59;;;;;;;;;48.25;38.50;;;;;8.73;81.38;102887.59;5056987;28;45307;-64
2022/01/17 11:03:29;;;;;;;;;51.75;38.75;;;;;8.65;81.59;102883.19;5055355;28;46079;-65
2022/01/17 11:05:56;;;;;;;;;53.75;44.00;;;;;8.56;81.91;102886.63;5041387;28;45883;-64
2022/01/17 11:08:25;;;;;;;;;51.50;41.00;;;;;8.47;81.65;102892.66;5042004;28;45502;-63
2022/01/17 11:10:53;;;;;;;;;55.75;42.50;;;;;8.42;82.41;102890.03;5059935;28;45246;-63
2022/01/17 11:13:20;;;;;;;;;51.00;39.75;;;;;8.44;82.61;102890.03;5059403;28;45438;-64
2022/01/17 11:15:51;;;;;;;;;51.25;40.00;;;;;8.47;83.08;102895.28;5061110;28;45353;-61
2022/01/17 11:18:21;;;;;;;;;49.00;38.00;;;;;8.56;83.10;102878.75;5060976;28;45339;-66
2022/01/17 11:20:50;;;;;;;;;54.75;41.75;;;;;8.68;81.86;102893.72;5060288;28;45220;-64
2022/01/17 11:23:21;;;;;;;;;48.75;40.00;;;;;8.81;81.83;102895.50;5041862;28;47163;-64
2022/01/17 11:25:52;;;;;;;;;50.75;40.25;;;;;8.94;80.76;102893.81;5059759;28;45368;-65
2022/01/17 11:28:17;;;;;;;;;53.75;43.50;;;;;9.01;81.01;102892.09;5060923;28;45409;-62
2022/01/17 11:30:44;;;;;;;;;51.75;39.00;;;;;9.07;80.90;102884.22;5060116;28;45529;-63
2022/01/17 11:33:11;;;;;;;;;46.75;38.50;;;;;9.09;80.65;102887.75;5057975;28;46870;-65
2022/01/17 11:35:42;;;;;;;;;47.75;38.25;;;;;9.12;80.43;102869.38;5059409;28;45456;-61
2022/01/17 11:38:13;;;;;;;;;51.25;41.00;;;;;9.16;80.31;102870.25;5060025;28;45347;-63
2022/01/17 11:40:41;;;;;;;;;57.00;43.00;;;;;9.09;80.28;102869.34;5060186;28;45359;-62
2022/01/17 11:43:32;;;;;;;;;55.25;41.75;;;;;9.15;80.27;102871.13;5041626;28;45421;-64